Time;durP1;ratioP1;P1;durP2;ratioP2;P2;SDS_P1;SDS_P2;PMS_P1;PMS_P2;Temp;Humidity;BMP_temperature;BMP_pressure;BME280_temperature;BME280_humidity;BME280_pressure;Samples;Min_cycle;Max_cycle;Signal;HPM_P1;HPM_P2
2023/04/13 00:00:20;;;;;;;;;;;7.10;99.90;;;;;;5005882;28;19917;-63
2023/04/13 00:02:52;;;;;;;;;;;7.30;99.90;;;;;;5007529;28;19925;-63
2023/04/13 00:05:18;;;;;;;;;;;7.30;99.90;;;;;;5002904;28;19937;-63
2023/04/13 00:07:44;;;;;;;;;;;7.50;99.90;;;;;;5009213;28;20403;-63
2023/04/13 00:10:09;;;;;;;;;;;7.60;99.90;;;;;;5008844;28;20303;-62
2023/04/13 00:12:35;;;;;;;;;;;7.70;99.90;;;;;;5003877;28;19922;-61
2023/04/13 00:15:01;;;;;;;;;;;7.70;99.90;;;;;;5011960;28;19913;-61
2023/04/13 00:17:27;;;;;;;;;;;7.80;99.90;;;;;;5010122;28;19913;-63
2023/04/13 00:19:56;;;;;;;;;;;7.80;99.90;;;;;;5008311;28;19936;-62
2023/04/13 00:22:23;;;;;;;;;;;7.90;99.90;;;;;;5006437;28;19924;-63
2023/04/13 00:24:48;;;;;;;;;;;8.00;99.90;;;;;;5006689;28;20754;-62
2023/04/13 00:27:14;;;;;;;;;;;7.90;99.90;;;;;;5004329;28;19928;-63
2023/04/13 00:29:39;;;;;;;;;;;7.90;99.90;;;;;;5005770;28;19917;-63
2023/04/13 00:32:05;;;;;;;;;;;8.00;99.90;;;;;;5006773;28;20422;-63
2023/04/13 00:34:30;;;;;;;;;;;8.00;99.90;;;;;;5008349;28;19914;-62
2023/04/13 00:36:56;;;;;;;;;;;8.00;99.90;;;;;;5007916;28;20048;-63
2023/04/13 00:39:22;;;;;;;;;;;8.00;99.90;;;;;;5007871;28;19924;-63
2023/04/13 00:41:50;;;;;;;;;;;8.00;99.90;;;;;;5003970;28;19914;-62
2023/04/13 00:44:18;;;;;;;;;;;8.10;99.90;;;;;;5006458;28;19999;-61
2023/04/13 00:46:46;;;;;;;;;;;8.10;99.90;;;;;;5005392;28;19925;-63
2023/04/13 00:49:12;;;;;;;;;;;8.10;99.90;;;;;;5007414;28;19929;-55
2023/04/13 00:51:38;;;;;;;;;;;8.10;99.90;;;;;;5004701;28;19913;-59
2023/04/13 00:54:03;;;;;;;;;;;8.20;99.90;;;;;;5008898;28;20345;-61
2023/04/13 00:56:29;;;;;;;;;;;8.30;99.90;;;;;;5004242;28;19968;-62
2023/04/13 00:58:55;;;;;;;;;;;8.30;99.90;;;;;;5004239;28;19935;-62
2023/04/13 01:01:20;;;;;;;;;;;8.30;99.90;;;;;;5005459;28;19914;-64
2023/04/13 01:03:47;;;;;;;;;;;8.30;99.90;;;;;;5007841;28;19924;-62
2023/04/13 01:06:17;;;;;;;;;;;8.40;99.90;;;;;;5002094;28;19913;-62
2023/04/13 01:08:46;;;;;;;;;;;8.40;99.90;;;;;;5002775;28;19960;-62
2023/04/13 01:11:18;;;;;;;;;;;8.30;99.90;;;;;;5003344;28;19925;-64
2023/04/13 01:13:51;;;;;;;;;;;8.30;99.90;;;;;;5005370;28;19920;-63
2023/04/13 01:16:19;;;;;;;;;;;8.20;99.90;;;;;;5002580;28;20023;-63
2023/04/13 01:18:47;;;;;;;;;;;8.20;99.90;;;;;;5007451;28;19925;-64
2023/04/13 01:21:16;;;;;;;;;;;8.20;99.90;;;;;;5001801;28;19921;-63
2023/04/13 01:23:45;;;;;;;;;;;8.10;99.90;;;;;;5006209;28;19918;-62
2023/04/13 01:26:10;;;;;;;;;;;8.10;99.90;;;;;;5005500;28;20770;-62
2023/04/13 01:28:37;;;;;;;;;;;8.00;99.90;;;;;;5004867;28;19918;-63
2023/04/13 01:31:10;;;;;;;;;;;8.00;99.90;;;;;;5004269;28;19944;-63
2023/04/13 01:33:39;;;;;;;;;;;8.00;99.90;;;;;;5004337;28;19925;-63
2023/04/13 01:36:05;;;;;;;;;;;8.10;99.90;;;;;;5007465;28;19929;-62
2023/04/13 01:38:30;;;;;;;;;;;8.10;99.90;;;;;;5009072;28;19936;-62
2023/04/13 01:40:56;;;;;;;;;;;8.10;99.90;;;;;;5008655;28;19921;-63
2023/04/13 01:43:22;;;;;;;;;;;8.10;99.90;;;;;;5008012;28;19925;-60
2023/04/13 01:45:51;;;;;;;;;;;8.20;99.90;;;;;;5010084;28;19913;-62
2023/04/13 01:48:23;;;;;;;;;;;8.20;99.90;;;;;;5006679;28;19921;-63
2023/04/13 01:50:51;;;;;;;;;;;8.20;99.90;;;;;;5009173;28;19918;-61
2023/04/13 01:53:18;;;;;;;;;;;8.20;99.90;;;;;;5006423;28;20644;-64
2023/04/13 01:55:43;;;;;;;;;;;8.20;99.90;;;;;;5005542;28;19913;-63
2023/04/13 01:58:10;;;;;;;;;;;8.20;99.90;;;;;;5008146;28;20333;-64
2023/04/13 02:00:36;;;;;;;;;;;8.20;99.90;;;;;;5004820;28;19923;-64
2023/04/13 02:03:03;;;;;;;;;;;8.20;99.90;;;;;;5006359;28;19914;-62
2023/04/13 02:05:30;;;;;;;;;;;8.20;99.90;;;;;;5011216;28;19920;-62
2023/04/13 02:07:55;;;;;;;;;;;8.30;99.90;;;;;;5009886;28;19921;-63
2023/04/13 02:10:21;;;;;;;;;;;8.30;99.90;;;;;;5010721;28;19955;-63
2023/04/13 02:12:46;;;;;;;;;;;8.20;99.90;;;;;;5006767;28;20000;-63
2023/04/13 02:15:12;;;;;;;;;;;8.20;99.90;;;;;;5007960;28;20003;-61
2023/04/13 02:17:38;;;;;;;;;;;8.20;99.90;;;;;;5005198;28;19928;-63
2023/04/13 02:20:10;;;;;;;;;;;8.30;99.90;;;;;;5007940;28;19914;-63
2023/04/13 02:22:35;;;;;;;;;;;8.30;99.90;;;;;;5008270;28;20007;-62
2023/04/13 02:25:01;;;;;;;;;;;8.30;99.90;;;;;;5006940;28;19953;-61
2023/04/13 02:27:27;;;;;;;;;;;8.30;99.90;;;;;;5008320;28;19914;-64
2023/04/13 02:29:54;;;;;;;;;;;8.30;99.90;;;;;;5006658;28;19925;-62
2023/04/13 02:32:19;;;;;;;;;;;8.30;99.90;;;;;;5006869;28;20312;-62
2023/04/13 02:34:46;;;;;;;;;;;8.30;99.90;;;;;;5008438;28;19914;-63
2023/04/13 02:37:12;;;;;;;;;;;8.30;99.90;;;;;;5004725;28;19917;-63
2023/04/13 02:39:37;;;;;;;;;;;8.30;99.90;;;;;;5003050;28;20304;-63
2023/04/13 02:42:04;;;;;;;;;;;8.30;99.90;;;;;;5007061;28;19921;-63
2023/04/13 02:44:29;;;;;;;;;;;8.30;99.90;;;;;;5004231;28;19968;-62
2023/04/13 02:46:55;;;;;;;;;;;8.30;99.90;;;;;;5005963;28;20391;-61
2023/04/13 02:49:21;;;;;;;;;;;8.30;99.90;;;;;;5002672;28;20561;-63
2023/04/13 02:51:46;;;;;;;;;;;8.30;99.90;;;;;;5009943;28;20326;-63
2023/04/13 02:54:12;;;;;;;;;;;8.30;99.90;;;;;;5005431;28;19913;-61
2023/04/13 02:56:37;;;;;;;;;;;8.30;99.90;;;;;;5009007;28;20402;-61
2023/04/13 02:59:03;;;;;;;;;;;8.30;99.90;;;;;;5004428;28;19913;-64
2023/04/13 03:01:28;;;;;;;;;;;8.40;99.90;;;;;;5005660;28;19924;-63
2023/04/13 03:03:54;;;;;;;;;;;8.40;99.90;;;;;;5002620;28;19917;-65
2023/04/13 03:06:21;;;;;;;;;;;8.40;99.90;;;;;;5006383;28;19913;-62
2023/04/13 03:08:47;;;;;;;;;;;8.30;99.90;;;;;;5005960;28;19952;-61
2023/04/13 03:11:12;;;;;;;;;;;8.30;99.90;;;;;;5008541;28;20410;-62
2023/04/13 03:13:38;;;;;;;;;;;8.30;99.90;;;;;;5009089;28;20004;-63
2023/04/13 03:16:04;;;;;;;;;;;8.30;99.90;;;;;;5011859;28;19924;-61
2023/04/13 03:18:30;;;;;;;;;;;8.30;99.90;;;;;;5009965;28;19921;-62
2023/04/13 03:20:55;;;;;;;;;;;8.30;99.90;;;;;;5009471;28;19918;-61
2023/04/13 03:23:21;;;;;;;;;;;8.30;99.90;;;;;;5006996;28;19924;-63
2023/04/13 03:25:46;;;;;;;;;;;8.30;99.90;;;;;;5009074;28;19913;-63
2023/04/13 03:28:12;;;;;;;;;;;8.30;99.90;;;;;;5006782;28;19914;-64
2023/04/13 03:30:37;;;;;;;;;;;8.30;99.90;;;;;;5005241;28;20408;-65
2023/04/13 03:33:03;;;;;;;;;;;8.30;99.90;;;;;;5006765;28;20004;-62
2023/04/13 03:35:28;;;;;;;;;;;8.30;99.90;;;;;;5005040;28;19922;-61
2023/04/13 03:37:53;;;;;;;;;;;8.30;99.90;;;;;;5007357;28;19924;-62
2023/04/13 03:40:19;;;;;;;;;;;8.30;99.90;;;;;;5010037;28;20400;-61
2023/04/13 03:42:45;;;;;;;;;;;8.30;99.90;;;;;;5007627;28;19909;-64
2023/04/13 03:45:10;;;;;;;;;;;8.30;99.90;;;;;;5006730;28;19913;-61
2023/04/13 03:47:37;;;;;;;;;;;8.30;99.90;;;;;;5007165;28;19914;-63
2023/04/13 03:50:03;;;;;;;;;;;8.30;99.90;;;;;;5007052;28;20408;-61
2023/04/13 03:52:28;;;;;;;;;;;8.30;99.90;;;;;;5004171;28;19944;-61
2023/04/13 03:54:54;;;;;;;;;;;8.30;99.90;;;;;;5006426;28;19917;-63
2023/04/13 03:57:20;;;;;;;;;;;8.30;99.90;;;;;;5008593;28;19914;-64
2023/04/13 03:59:46;;;;;;;;;;;8.30;99.90;;;;;;5003704;28;19921;-62
2023/04/13 04:02:11;;;;;;;;;;;8.30;99.90;;;;;;5007393;28;19968;-64
2023/04/13 04:04:37;;;;;;;;;;;8.30;99.90;;;;;;5005795;28;19920;-64
2023/04/13 04:07:02;;;;;;;;;;;8.30;99.90;;;;;;5004780;28;19920;-62
2023/04/13 04:09:28;;;;;;;;;;;8.30;99.90;;;;;;5008978;28;20334;-63
2023/04/13 04:11:53;;;;;;;;;;;8.30;99.90;;;;;;5000950;28;19921;-63
2023/04/13 04:14:19;;;;;;;;;;;8.30;99.90;;;;;;5006971;28;19914;-63
2023/04/13 04:16:45;;;;;;;;;;;8.30;99.90;;;;;;5004781;28;19914;-60
2023/04/13 04:19:10;;;;;;;;;;;8.40;99.90;;;;;;5008052;28;20315;-63
2023/04/13 04:21:36;;;;;;;;;;;8.40;99.90;;;;;;5004221;28;19918;-63
2023/04/13 04:24:04;;;;;;;;;;;8.40;99.90;;;;;;5003965;28;19928;-63
2023/04/13 04:26:31;;;;;;;;;;;8.40;99.90;;;;;;5003654;28;19913;-62
2023/04/13 04:29:01;;;;;;;;;;;8.40;99.90;;;;;;5007728;28;19917;-62
2023/04/13 04:31:30;;;;;;;;;;;8.50;99.90;;;;;;5005628;28;20346;-62
2023/04/13 04:33:56;;;;;;;;;;;8.50;99.90;;;;;;5007750;28;20447;-63
2023/04/13 04:36:22;;;;;;;;;;;8.50;99.90;;;;;;5008510;28;19921;-63
2023/04/13 04:38:48;;;;;;;;;;;8.50;99.90;;;;;;5003823;28;19922;-62
2023/04/13 04:41:19;;;;;;;;;;;8.50;99.90;;;;;;5008456;28;20407;-64
2023/04/13 04:43:45;;;;;;;;;;;8.50;99.90;;;;;;5006287;28;19925;-66
2023/04/13 04:46:14;;;;;;;;;;;8.50;99.90;;;;;;5001893;28;20323;-60
2023/04/13 04:48:40;;;;;;;;;;;8.50;99.90;;;;;;5003393;28;19975;-61
2023/04/13 04:51:07;;;;;;;;;;;8.50;99.90;;;;;;5002637;28;20023;-63
2023/04/13 04:53:33;;;;;;;;;;;8.50;99.90;;;;;;5002249;28;19921;-65
2023/04/13 04:55:58;;;;;;;;;;;8.50;99.90;;;;;;5002699;28;19914;-63
2023/04/13 04:58:24;;;;;;;;;;;8.60;99.90;;;;;;5007071;28;19924;-63
2023/04/13 05:00:51;;;;;;;;;;;8.60;99.90;;;;;;5003514;28;19914;-64
2023/04/13 05:03:16;;;;;;;;;;;8.60;99.90;;;;;;5002876;28;19913;-64
2023/04/13 05:05:42;;;;;;;;;;;8.60;99.90;;;;;;5001836;28;19914;-63
2023/04/13 05:08:08;;;;;;;;;;;8.60;99.90;;;;;;5007074;28;20013;-63
2023/04/13 05:10:34;;;;;;;;;;;8.60;99.90;;;;;;5004693;28;19925;-64
2023/04/13 05:12:59;;;;;;;;;;;8.60;99.90;;;;;;5009715;28;19917;-61
2023/04/13 05:15:25;;;;;;;;;;;8.60;99.90;;;;;;5009277;28;19928;-63
2023/04/13 05:17:52;;;;;;;;;;;8.60;99.90;;;;;;5011574;28;20461;-62
2023/04/13 05:20:18;;;;;;;;;;;8.50;99.90;;;;;;5008603;28;19914;-60
2023/04/13 05:22:43;;;;;;;;;;;8.50;99.90;;;;;;5005597;28;19956;-63
2023/04/13 05:25:09;;;;;;;;;;;8.50;99.90;;;;;;5007643;28;20364;-63
2023/04/13 05:27:35;;;;;;;;;;;8.50;99.90;;;;;;5008697;28;19917;-62
2023/04/13 05:30:02;;;;;;;;;;;8.50;99.90;;;;;;5010587;28;19961;-64
2023/04/13 05:32:27;;;;;;;;;;;8.50;99.90;;;;;;5008217;28;20055;-61
2023/04/13 05:34:53;;;;;;;;;;;8.40;99.90;;;;;;5007197;28;20914;-59
2023/04/13 05:37:19;;;;;;;;;;;8.40;99.90;;;;;;5009596;28;20462;-62
2023/04/13 05:39:45;;;;;;;;;;;8.40;99.90;;;;;;5006687;28;19917;-60
2023/04/13 05:42:10;;;;;;;;;;;8.40;99.90;;;;;;5005436;28;19918;-63
2023/04/13 05:44:36;;;;;;;;;;;8.50;99.90;;;;;;5008221;28;19913;-62
2023/04/13 05:47:02;;;;;;;;;;;8.50;99.90;;;;;;5006486;28;19913;-63
2023/04/13 05:49:27;;;;;;;;;;;8.50;99.90;;;;;;5006006;28;19914;-61
2023/04/13 05:51:53;;;;;;;;;;;8.40;99.90;;;;;;5005426;28;19922;-62
2023/04/13 05:54:19;;;;;;;;;;;8.40;99.90;;;;;;5008957;28;19914;-63
2023/04/13 05:56:46;;;;;;;;;;;8.40;99.90;;;;;;5008048;28;20391;-64
2023/04/13 05:59:11;;;;;;;;;;;8.40;99.90;;;;;;5008061;28;19921;-63
2023/04/13 06:01:37;;;;;;;;;;;8.40;99.90;;;;;;5003181;28;19967;-63
2023/04/13 06:04:02;;;;;;;;;;;8.40;99.90;;;;;;5009031;28;19993;-63
2023/04/13 06:06:29;;;;;;;;;;;8.30;99.90;;;;;;5009481;28;19920;-61
2023/04/13 06:08:55;;;;;;;;;;;8.30;99.90;;;;;;5009650;28;19944;-63
2023/04/13 06:11:21;;;;;;;;;;;8.30;99.90;;;;;;5006971;28;19917;-62
2023/04/13 06:13:46;;;;;;;;;;;8.30;99.90;;;;;;5010205;28;20052;-63
2023/04/13 06:16:12;;;;;;;;;;;8.30;99.90;;;;;;5005080;28;20280;-61
2023/04/13 06:18:37;;;;;;;;;;;8.40;99.90;;;;;;5010362;28;19948;-62
2023/04/13 06:21:03;;;;;;;;;;;8.40;99.90;;;;;;5003929;28;19924;-63
2023/04/13 06:23:28;;;;;;;;;;;8.40;99.90;;;;;;5005319;28;19940;-61
2023/04/13 06:25:55;;;;;;;;;;;8.30;99.90;;;;;;5006467;28;19920;-62
2023/04/13 06:28:21;;;;;;;;;;;8.20;99.90;;;;;;5013757;28;20288;-62
2023/04/13 06:30:47;;;;;;;;;;;8.30;99.90;;;;;;5001948;28;19925;-65
2023/04/13 06:33:14;;;;;;;;;;;8.30;99.90;;;;;;5007977;28;19914;-60
2023/04/13 06:35:39;;;;;;;;;;;8.30;99.90;;;;;;5008442;28;19917;-61
2023/04/13 06:38:06;;;;;;;;;;;8.30;99.90;;;;;;5011933;28;19918;-61
2023/04/13 06:40:32;;;;;;;;;;;8.30;99.90;;;;;;5008853;28;19913;-61
2023/04/13 06:42:57;;;;;;;;;;;8.30;99.90;;;;;;5008711;28;20831;-62
2023/04/13 06:45:23;;;;;;;;;;;8.30;99.90;;;;;;5007210;28;20060;-63
2023/04/13 06:47:51;;;;;;;;;;;8.40;99.90;;;;;;5007332;28;21624;-61
2023/04/13 06:50:16;;;;;;;;;;;8.30;99.90;;;;;;5007055;28;20417;-60
2023/04/13 06:52:42;;;;;;;;;;;8.30;99.90;;;;;;5004324;28;19988;-62
2023/04/13 06:55:08;;;;;;;;;;;8.30;99.90;;;;;;5011102;28;19913;-62
2023/04/13 06:57:33;;;;;;;;;;;8.30;99.90;;;;;;5007496;28;20003;-64
2023/04/13 06:59:59;;;;;;;;;;;8.40;99.90;;;;;;5008803;28;19920;-63
2023/04/13 07:02:25;;;;;;;;;;;8.60;99.90;;;;;;5004059;28;19918;-58
2023/04/13 07:04:51;;;;;;;;;;;8.70;99.90;;;;;;5007228;28;19929;-61
2023/04/13 07:07:16;;;;;;;;;;;8.70;99.90;;;;;;5006307;28;20038;-62
2023/04/13 07:09:42;;;;;;;;;;;8.70;99.90;;;;;;5008975;28;19914;-63
2023/04/13 07:12:07;;;;;;;;;;;8.80;99.90;;;;;;5007226;28;19914;-60
2023/04/13 07:14:36;;;;;;;;;;;8.80;99.90;;;;;;5009243;28;19914;-61
2023/04/13 07:17:02;;;;;;;;;;;8.80;99.90;;;;;;5003246;28;19921;-62
2023/04/13 07:19:31;;;;;;;;;;;8.80;99.90;;;;;;5007888;28;19921;-60
2023/04/13 07:21:59;;;;;;;;;;;8.90;99.90;;;;;;5004615;28;19932;-60
2023/04/13 07:24:26;;;;;;;;;;;9.00;99.90;;;;;;5010019;28;19980;-63
2023/04/13 07:26:52;;;;;;;;;;;8.90;99.90;;;;;;5005855;28;19972;-63
2023/04/13 07:29:17;;;;;;;;;;;8.80;99.90;;;;;;5010378;28;19917;-62
2023/04/13 07:31:43;;;;;;;;;;;8.80;99.90;;;;;;5008969;28;19964;-60
2023/04/13 07:34:08;;;;;;;;;;;9.00;99.90;;;;;;5003548;28;20378;-62
2023/04/13 07:36:34;;;;;;;;;;;9.10;99.90;;;;;;4998980;28;19923;-59
2023/04/13 07:39:00;;;;;;;;;;;9.10;99.90;;;;;;5006575;28;20276;-60
2023/04/13 07:41:25;;;;;;;;;;;9.20;99.90;;;;;;5007285;28;19913;-61
2023/04/13 07:43:51;;;;;;;;;;;9.40;99.90;;;;;;5012544;28;20615;-63
2023/04/13 07:46:16;;;;;;;;;;;9.40;99.90;;;;;;5010862;28;19910;-61
2023/04/13 07:48:42;;;;;;;;;;;9.30;99.90;;;;;;5007557;28;19925;-62
2023/04/13 07:51:19;;;;;;;;;;;9.30;99.90;;;;;;5009699;28;19925;-63
2023/04/13 07:53:45;;;;;;;;;;;9.40;99.90;;;;;;5011524;28;19952;-62
2023/04/13 07:56:11;;;;;;;;;;;9.50;99.90;;;;;;5005228;28;19957;-62
2023/04/13 07:58:36;;;;;;;;;;;9.50;99.90;;;;;;5007315;28;19913;-61
2023/04/13 08:01:02;;;;;;;;;;;9.40;99.90;;;;;;5009607;28;19913;-62
2023/04/13 08:03:33;;;;;;;;;;;9.40;99.90;;;;;;5006146;28;19913;-62
2023/04/13 08:05:59;;;;;;;;;;;9.50;99.90;;;;;;5009593;28;19921;-62
2023/04/13 08:08:25;;;;;;;;;;;9.40;99.90;;;;;;5005650;28;19917;-62
2023/04/13 08:10:51;;;;;;;;;;;9.30;99.90;;;;;;5003831;28;19917;-61
2023/04/13 08:13:16;;;;;;;;;;;9.20;99.90;;;;;;5004889;28;19920;-59
2023/04/13 08:15:42;;;;;;;;;;;9.30;99.90;;;;;;5003080;28;20013;-63
2023/04/13 08:18:07;;;;;;;;;;;9.30;99.90;;;;;;5005016;28;19913;-60
2023/04/13 08:20:34;;;;;;;;;;;9.30;99.90;;;;;;5000508;28;19922;-62
2023/04/13 08:23:00;;;;;;;;;;;9.40;99.90;;;;;;4999978;28;19922;-62
2023/04/13 08:25:25;;;;;;;;;;;9.30;99.90;;;;;;5003594;28;19967;-62
2023/04/13 08:27:51;;;;;;;;;;;9.40;99.90;;;;;;5005029;28;20043;-61
2023/04/13 08:30:16;;;;;;;;;;;9.40;99.90;;;;;;5006884;28;20380;-63
2023/04/13 08:32:42;;;;;;;;;;;9.50;99.90;;;;;;5000113;28;22118;-62
2023/04/13 08:35:08;;;;;;;;;;;9.60;99.90;;;;;;5002585;28;19961;-62
2023/04/13 08:37:33;;;;;;;;;;;9.50;99.90;;;;;;5007606;28;19960;-62
2023/04/13 08:39:59;;;;;;;;;;;9.50;99.90;;;;;;5000368;28;20001;-63
2023/04/13 08:42:26;;;;;;;;;;;9.60;99.90;;;;;;5006011;28;19918;-61
2023/04/13 08:44:53;;;;;;;;;;;9.60;99.90;;;;;;5002872;28;19910;-63
2023/04/13 08:47:19;;;;;;;;;;;9.60;99.90;;;;;;5008083;28;19949;-63
2023/04/13 08:49:47;;;;;;;;;;;9.70;99.90;;;;;;5001389;28;19914;-64
2023/04/13 08:52:13;;;;;;;;;;;9.60;99.90;;;;;;5003613;28;20380;-63
2023/04/13 08:54:39;;;;;;;;;;;9.60;99.90;;;;;;5003219;28;19921;-63
2023/04/13 08:57:04;;;;;;;;;;;9.70;99.90;;;;;;5007071;28;19921;-63
2023/04/13 08:59:30;;;;;;;;;;;9.70;99.90;;;;;;5005822;28;19909;-63
2023/04/13 09:01:57;;;;;;;;;;;9.80;99.90;;;;;;4999537;28;20055;-63
2023/04/13 09:04:25;;;;;;;;;;;9.80;99.90;;;;;;5004167;28;19913;-64
2023/04/13 09:06:50;;;;;;;;;;;9.90;99.90;;;;;;5008570;28;19909;-63
2023/04/13 09:09:17;;;;;;;;;;;10.00;99.90;;;;;;5001576;28;20408;-63
2023/04/13 09:11:44;;;;;;;;;;;10.00;99.90;;;;;;5003231;28;19913;-65
2023/04/13 09:14:10;;;;;;;;;;;10.00;99.90;;;;;;5004496;28;20029;-63
2023/04/13 09:16:39;;;;;;;;;;;10.00;99.90;;;;;;5008285;28;19992;-63
2023/04/13 09:19:05;;;;;;;;;;;10.00;99.90;;;;;;5001991;28;19917;-63
2023/04/13 09:21:37;;;;;;;;;;;10.10;99.90;;;;;;5002895;28;19925;-62
2023/04/13 09:24:03;;;;;;;;;;;10.20;99.90;;;;;;5006466;28;20363;-63
2023/04/13 09:26:38;;;;;;;;;;;10.10;99.90;;;;;;5008761;28;19914;-63
2023/04/13 09:29:04;;;;;;;;;;;10.20;99.90;;;;;;5005575;28;20379;-63
2023/04/13 09:31:32;;;;;;;;;;;10.30;99.90;;;;;;5004895;28;19925;-62
2023/04/13 09:33:58;;;;;;;;;;;10.40;99.90;;;;;;5004652;28;19928;-63
2023/04/13 09:36:24;;;;;;;;;;;10.50;99.90;;;;;;5006741;28;19914;-62
2023/04/13 09:38:51;;;;;;;;;;;10.60;99.90;;;;;;5006615;28;19960;-63
2023/04/13 09:41:26;;;;;;;;;;;10.60;99.90;;;;;;5002469;28;20112;-62
2023/04/13 09:43:52;;;;;;;;;;;10.50;99.90;;;;;;5002465;28;20607;-63
2023/04/13 09:46:17;;;;;;;;;;;10.60;99.90;;;;;;5006423;28;19917;-62
2023/04/13 09:48:43;;;;;;;;;;;10.60;99.90;;;;;;4995659;28;19913;-63
2023/04/13 09:51:08;;;;;;;;;;;10.70;99.90;;;;;;5006912;28;19972;-63
2023/04/13 09:53:41;;;;;;;;;;;10.60;99.90;;;;;;5005900;28;19971;-62
2023/04/13 09:56:07;;;;;;;;;;;10.80;99.90;;;;;;5006139;28;20012;-63
2023/04/13 09:58:36;;;;;;;;;;;10.70;99.90;;;;;;5007375;28;20382;-63
2023/04/13 10:01:01;;;;;;;;;;;10.60;99.90;;;;;;5008292;28;20371;-63
2023/04/13 10:03:27;;;;;;;;;;;10.30;99.90;;;;;;5008369;28;19925;-61
2023/04/13 10:05:53;;;;;;;;;;;10.10;99.90;;;;;;5007292;28;19913;-64
2023/04/13 10:08:18;;;;;;;;;;;9.70;99.90;;;;;;5007791;28;20430;-63
2023/04/13 10:10:45;;;;;;;;;;;9.40;99.90;;;;;;5002326;28;20011;-63
2023/04/13 10:13:19;;;;;;;;;;;9.20;99.90;;;;;;5003914;28;19914;-63
2023/04/13 10:15:50;;;;;;;;;;;9.10;99.90;;;;;;5007890;28;19917;-63
2023/04/13 10:18:18;;;;;;;;;;;9.40;99.90;;;;;;5001695;28;19913;-63
2023/04/13 10:20:44;;;;;;;;;;;9.80;99.90;;;;;;5003343;28;20005;-63
2023/04/13 10:23:10;;;;;;;;;;;10.30;99.90;;;;;;5005182;28;19929;-62
2023/04/13 10:25:35;;;;;;;;;;;10.70;99.90;;;;;;5002944;28;19916;-63
2023/04/13 10:28:01;;;;;;;;;;;11.00;99.90;;;;;;5004418;28;20036;-63
2023/04/13 10:30:27;;;;;;;;;;;11.40;99.90;;;;;;5000546;28;19914;-63
2023/04/13 10:33:09;;;;;;;;;;;11.30;99.90;;;;;;5000435;28;19917;-62
2023/04/13 10:35:39;;;;;;;;;;;11.80;99.90;;;;;;5007362;28;20272;-63
2023/04/13 10:38:04;;;;;;;;;;;11.70;99.90;;;;;;4997188;28;20250;-63
2023/04/13 10:40:40;;;;;;;;;;;11.70;99.90;;;;;;5007786;28;20028;-62
2023/04/13 10:43:06;;;;;;;;;;;11.80;99.90;;;;;;5006681;28;19922;-63
2023/04/13 10:45:34;;;;;;;;;;;12.00;99.90;;;;;;5012236;28;19909;-62
2023/04/13 10:48:00;;;;;;;;;;;11.90;99.90;;;;;;5002856;28;19960;-62
2023/04/13 10:50:26;;;;;;;;;;;11.60;99.90;;;;;;5004119;28;19949;-62
2023/04/13 10:52:55;;;;;;;;;;;11.30;99.90;;;;;;5006900;28;19917;-62
2023/04/13 10:55:22;;;;;;;;;;;11.20;99.90;;;;;;5006906;28;20300;-63
2023/04/13 10:57:48;;;;;;;;;;;11.20;99.90;;;;;;5001719;28;19952;-62
2023/04/13 11:00:20;;;;;;;;;;;11.30;99.90;;;;;;5005441;28;20423;-63
2023/04/13 11:02:48;;;;;;;;;;;11.90;99.90;;;;;;5000560;28;19917;-62
2023/04/13 11:05:14;;;;;;;;;;;12.20;99.90;;;;;;5005319;28;19955;-62
2023/04/13 11:07:41;;;;;;;;;;;12.20;99.90;;;;;;4986656;28;19917;-62
2023/04/13 11:10:07;;;;;;;;;;;12.30;99.90;;;;;;4995286;28;19917;-63
2023/04/13 11:12:32;;;;;;;;;;;12.20;99.90;;;;;;5009046;28;20291;-62
2023/04/13 11:14:58;;;;;;;;;;;12.10;99.90;;;;;;5007895;28;19928;-63
2023/04/13 11:17:23;;;;;;;;;;;12.10;99.90;;;;;;5006350;28;19959;-64
2023/04/13 11:19:50;;;;;;;;;;;12.00;99.90;;;;;;5005990;28;20390;-63
2023/04/13 11:22:20;;;;;;;;;;;11.80;99.90;;;;;;5005613;28;19921;-60
2023/04/13 11:24:46;;;;;;;;;;;11.80;99.90;;;;;;5006554;28;19917;-62
2023/04/13 11:27:18;;;;;;;;;;;11.60;99.90;;;;;;5006304;28;20007;-63
2023/04/13 11:29:43;;;;;;;;;;;11.40;99.90;;;;;;5004323;28;19910;-63
2023/04/13 11:32:17;;;;;;;;;;;11.40;99.90;;;;;;5005127;28;19929;-63
2023/04/13 11:34:43;;;;;;;;;;;11.50;99.90;;;;;;5006731;28;19920;-63
2023/04/13 11:37:10;;;;;;;;;;;11.40;99.90;;;;;;5011059;28;19913;-63
2023/04/13 11:39:35;;;;;;;;;;;11.40;99.90;;;;;;5010939;28;19924;-63
2023/04/13 11:42:05;;;;;;;;;;;11.40;99.90;;;;;;5006916;28;19921;-63
2023/04/13 11:44:32;;;;;;;;;;;11.50;99.90;;;;;;5011322;28;19913;-63
2023/04/13 11:46:58;;;;;;;;;;;11.80;99.90;;;;;;5007626;28;19917;-62
2023/04/13 11:49:23;;;;;;;;;;;12.20;99.90;;;;;;5007833;28;20276;-62
2023/04/13 11:51:50;;;;;;;;;;;12.20;99.90;;;;;;5008661;28;19975;-62
2023/04/13 11:54:16;;;;;;;;;;;12.30;99.90;;;;;;5011574;28;19929;-63
2023/04/13 11:56:42;;;;;;;;;;;12.50;99.90;;;;;;5009425;28;20448;-62
2023/04/13 11:59:07;;;;;;;;;;;12.50;99.90;;;;;;5011623;28;20000;-62
2023/04/13 12:01:33;;;;;;;;;;;12.60;99.90;;;;;;5007671;28;20327;-61
2023/04/13 12:04:02;;;;;;;;;;;12.80;99.90;;;;;;5008091;28;19941;-63
2023/04/13 12:06:28;;;;;;;;;;;12.90;99.90;;;;;;5008489;28;20295;-62
2023/04/13 12:09:01;;;;;;;;;;;13.20;99.90;;;;;;5009148;28;20411;-64
2023/04/13 12:11:37;;;;;;;;;;;13.60;99.90;;;;;;5007742;28;20008;-61
2023/04/13 12:14:03;;;;;;;;;;;13.30;99.90;;;;;;5005364;28;19921;-63
2023/04/13 12:16:31;;;;;;;;;;;13.00;99.90;;;;;;4999547;28;20427;-63
2023/04/13 12:18:56;;;;;;;;;;;12.90;99.90;;;;;;5007113;28;20414;-63
2023/04/13 12:21:22;;;;;;;;;;;13.00;99.90;;;;;;5009711;28;19954;-63
2023/04/13 12:23:51;;;;;;;;;;;13.00;99.90;;;;;;5004664;28;19944;-61
2023/04/13 12:26:18;;;;;;;;;;;13.10;99.90;;;;;;5007630;28;20584;-62
2023/04/13 12:28:45;;;;;;;;;;;13.40;99.90;;;;;;5005894;28;20323;-63
2023/04/13 12:31:11;;;;;;;;;;;13.90;99.90;;;;;;5002249;28;20402;-63
2023/04/13 12:33:37;;;;;;;;;;;14.40;99.90;;;;;;5006574;28;19917;-63
2023/04/13 12:36:05;;;;;;;;;;;14.90;99.90;;;;;;5007372;28;19913;-63
2023/04/13 12:38:30;;;;;;;;;;;15.30;99.90;;;;;;5007182;28;19913;-63
2023/04/13 12:40:56;;;;;;;;;;;15.20;99.90;;;;;;5007458;28;19960;-63
2023/04/13 12:43:22;;;;;;;;;;;15.30;99.90;;;;;;5004009;28;19928;-64
2023/04/13 12:45:48;;;;;;;;;;;15.80;99.90;;;;;;5007384;28;19914;-63
2023/04/13 12:48:14;;;;;;;;;;;16.00;99.90;;;;;;5006100;28;19932;-63
2023/04/13 12:50:39;;;;;;;;;;;15.80;99.90;;;;;;5003473;28;19917;-63
2023/04/13 12:53:05;;;;;;;;;;;15.90;99.90;;;;;;5003144;28;20012;-63
2023/04/13 12:55:30;;;;;;;;;;;15.70;99.90;;;;;;5008722;28;19913;-63
2023/04/13 12:57:56;;;;;;;;;;;15.50;97.70;;;;;;5007020;28;19914;-64
2023/04/13 13:00:22;;;;;;;;;;;15.20;97.30;;;;;;5005894;28;19924;-63
2023/04/13 13:02:47;;;;;;;;;;;14.70;98.40;;;;;;5006312;28;19913;-64
2023/04/13 13:05:13;;;;;;;;;;;14.70;96.60;;;;;;5008784;28;19914;-63
2023/04/13 13:07:38;;;;;;;;;;;15.30;97.40;;;;;;5008607;28;19925;-63
2023/04/13 13:10:04;;;;;;;;;;;15.40;97.70;;;;;;5002737;28;19918;-63
2023/04/13 13:12:30;;;;;;;;;;;15.10;99.70;;;;;;5006733;28;19917;-62
2023/04/13 13:14:57;;;;;;;;;;;15.40;98.40;;;;;;5002519;28;19914;-63
2023/04/13 13:17:22;;;;;;;;;;;15.50;99.50;;;;;;5004699;28;19924;-63
2023/04/13 13:19:48;;;;;;;;;;;15.80;95.70;;;;;;5007147;28;19914;-64
2023/04/13 13:22:13;;;;;;;;;;;15.60;96.00;;;;;;5005079;28;19918;-64
2023/04/13 13:24:39;;;;;;;;;;;15.20;96.00;;;;;;5002811;28;19922;-63
2023/04/13 13:27:04;;;;;;;;;;;14.90;96.30;;;;;;5007270;28;19923;-63
2023/04/13 13:29:32;;;;;;;;;;;14.90;96.20;;;;;;5006087;28;20398;-63
2023/04/13 13:31:58;;;;;;;;;;;15.50;95.70;;;;;;5009740;28;19918;-62
2023/04/13 13:34:24;;;;;;;;;;;15.80;94.00;;;;;;5004751;28;19920;-62
2023/04/13 13:36:49;;;;;;;;;;;16.10;93.50;;;;;;5007523;28;20292;-63
2023/04/13 13:39:16;;;;;;;;;;;15.40;92.80;;;;;;5009575;28;20012;-64
2023/04/13 13:41:42;;;;;;;;;;;15.10;93.10;;;;;;5009134;28;19976;-63
2023/04/13 13:44:07;;;;;;;;;;;14.60;93.10;;;;;;5011348;28;19917;-63
2023/04/13 13:46:33;;;;;;;;;;;14.40;94.30;;;;;;5003586;28;20009;-62
2023/04/13 13:48:58;;;;;;;;;;;14.30;95.20;;;;;;5008686;28;19976;-63
2023/04/13 13:51:26;;;;;;;;;;;14.10;96.00;;;;;;5012600;28;19917;-64
2023/04/13 13:53:51;;;;;;;;;;;14.10;96.50;;;;;;5010247;28;19917;-61
2023/04/13 13:56:17;;;;;;;;;;;14.00;96.60;;;;;;5008543;28;19967;-63
2023/04/13 13:58:42;;;;;;;;;;;14.10;98.00;;;;;;5007989;28;19957;-63
2023/04/13 14:01:08;;;;;;;;;;;14.60;97.30;;;;;;5010583;28;20012;-63
2023/04/13 14:03:35;;;;;;;;;;;15.20;95.10;;;;;;5007972;28;19949;-63
2023/04/13 14:06:00;;;;;;;;;;;16.00;95.00;;;;;;5009704;28;19922;-62
2023/04/13 14:08:27;;;;;;;;;;;15.70;93.50;;;;;;5014148;28;19944;-62
2023/04/13 14:10:52;;;;;;;;;;;15.90;93.70;;;;;;5009738;28;19918;-61
2023/04/13 14:13:18;;;;;;;;;;;16.00;94.30;;;;;;5006176;28;19920;-62
2023/04/13 14:15:43;;;;;;;;;;;16.40;94.20;;;;;;5008234;28;20392;-62
2023/04/13 14:18:08;;;;;;;;;;;16.10;92.70;;;;;;5007084;28;19921;-62
2023/04/13 14:20:37;;;;;;;;;;;16.40;94.20;;;;;;5007834;28;20056;-62